createdAt,value
2018-08-24T00:01:11.546Z,98901.00
2018-08-24T00:03:16.126Z,98911.00
2018-08-24T00:05:20.594Z,98913.00
2018-08-24T00:07:25.187Z,98910.00
2018-08-24T00:09:30.638Z,98897.00
2018-08-24T00:11:35.303Z,98902.00
2018-08-24T00:13:39.746Z,98901.00
2018-08-24T00:15:44.207Z,98902.00
2018-08-24T00:17:49.042Z,98897.00
2018-08-24T00:19:53.475Z,98889.00
2018-08-24T00:21:57.935Z,98881.00
2018-08-24T00:24:02.364Z,98880.00
2018-08-24T00:26:06.839Z,98880.00
2018-08-24T00:28:11.303Z,98870.00
2018-08-24T00:30:15.777Z,98871.00
2018-08-24T00:32:20.243Z,98871.00
2018-08-24T00:34:24.692Z,98874.00
2018-08-24T00:36:30.329Z,98860.00
2018-08-24T00:38:35.074Z,98862.00
2018-08-24T00:40:39.515Z,98863.00
2018-08-24T00:42:44.059Z,98860.00
2018-08-24T00:44:48.435Z,98857.00
2018-08-24T00:46:52.858Z,98867.00
2018-08-24T00:48:57.318Z,98862.00
2018-08-24T00:51:01.769Z,98867.00
2018-08-24T00:53:06.227Z,98866.00
2018-08-24T00:55:10.698Z,98872.00
2018-08-24T00:57:15.142Z,98870.00
2018-08-24T00:59:19.578Z,98871.00
2018-08-24T01:01:28.878Z,98888.00
2018-08-24T01:03:34.342Z,98899.00
2018-08-24T01:05:41.038Z,98894.00
2018-08-24T01:07:51.790Z,98895.00
2018-08-24T01:10:01.331Z,98887.00
2018-08-24T01:12:15.329Z,98891.00
2018-08-24T01:14:21.470Z,98882.00
2018-08-24T01:16:32.991Z,98887.00
2018-08-24T01:18:44.785Z,98882.00
2018-08-24T01:20:52.960Z,98881.00
2018-08-24T01:23:00.807Z,98884.00
2018-08-24T01:25:07.412Z,98885.00
2018-08-24T01:27:13.062Z,98879.00
2018-08-24T01:29:18.385Z,98880.00
2018-08-24T01:31:26.015Z,98881.00
2018-08-24T01:33:34.465Z,98884.00
2018-08-24T01:35:42.414Z,98885.00
2018-08-24T01:37:49.925Z,98877.00
2018-08-24T01:39:58.232Z,98879.00
2018-08-24T01:42:06.924Z,98880.00
2018-08-24T01:44:15.422Z,98876.00
2018-08-24T01:46:24.861Z,98882.00
2018-08-24T01:48:34.025Z,98870.00
2018-08-24T01:50:41.871Z,98884.00
2018-08-24T01:52:47.326Z,98873.00
2018-08-24T01:54:52.951Z,98879.00
2018-08-24T01:57:01.634Z,98876.00
2018-08-24T01:59:09.291Z,98874.00
2018-08-24T02:01:14.006Z,98865.00
2018-08-24T02:03:21.436Z,98866.00
2018-08-24T02:05:27.869Z,98866.00
2018-08-24T02:07:34.642Z,98871.00
2018-08-24T02:09:42.466Z,98874.00
2018-08-24T02:11:49.195Z,98872.00
2018-08-24T02:13:59.058Z,98869.00
2018-08-24T02:16:04.910Z,98867.00
2018-08-24T02:18:17.624Z,98865.00
2018-08-24T02:20:27.363Z,98869.00
2018-08-24T02:22:32.111Z,98860.00
2018-08-24T02:24:36.550Z,98862.00
2018-08-24T02:26:41.642Z,98854.00
2018-08-24T02:28:46.118Z,98866.00
2018-08-24T02:30:50.625Z,98851.00
2018-08-24T02:32:55.147Z,98851.00
2018-08-24T02:35:00.067Z,98848.00
2018-08-24T02:37:04.576Z,98853.00
2018-08-24T02:39:14.211Z,98857.00
2018-08-24T02:41:18.747Z,98854.00
2018-08-24T02:43:23.934Z,98858.00
2018-08-24T02:45:28.430Z,98853.00
2018-08-24T02:47:32.918Z,98856.00
2018-08-24T02:49:37.378Z,98867.00
2018-08-24T02:51:41.834Z,98860.00
2018-08-24T02:53:46.350Z,98859.00
2018-08-24T02:55:50.849Z,98869.00
2018-08-24T02:57:55.330Z,98863.00
2018-08-24T02:59:59.891Z,98857.00
2018-08-24T03:02:04.378Z,98853.00
2018-08-24T03:04:08.887Z,98849.00
2018-08-24T03:06:13.446Z,98858.00
2018-08-24T03:08:17.919Z,98860.00
2018-08-24T03:10:22.438Z,98861.00
2018-08-24T03:12:26.938Z,98849.00
2018-08-24T03:14:31.399Z,98854.00
2018-08-24T03:16:35.845Z,98852.00
2018-08-24T03:18:40.310Z,98849.00
2018-08-24T03:20:44.866Z,98860.00
2018-08-24T03:22:49.383Z,98858.00
2018-08-24T03:24:53.862Z,98860.00
2018-08-24T03:26:58.328Z,98862.00
2018-08-24T03:29:02.823Z,98863.00
2018-08-24T03:31:07.355Z,98863.00
2018-08-24T03:33:13.507Z,98862.00
2018-08-24T03:35:18.067Z,98868.00
2018-08-24T03:37:22.599Z,98860.00
2018-08-24T03:39:27.681Z,98866.00
2018-08-24T03:41:33.297Z,98866.00
2018-08-24T03:43:37.731Z,98865.00
2018-08-24T03:45:42.250Z,98869.00
2018-08-24T03:47:46.685Z,98868.00
2018-08-24T03:49:51.217Z,98869.00
2018-08-24T03:51:55.725Z,98865.00
2018-08-24T03:54:00.336Z,98870.00
2018-08-24T03:56:05.463Z,98872.00
2018-08-24T03:58:09.939Z,98870.00
2018-08-24T04:00:17.982Z,98879.00
2018-08-24T04:02:24.121Z,98877.00
2018-08-24T04:04:30.541Z,98867.00
2018-08-24T04:06:36.341Z,98865.00
2018-08-24T04:08:41.937Z,98857.00
2018-08-24T04:10:48.323Z,98858.00
2018-08-24T04:12:56.861Z,98857.00
2018-08-24T04:15:04.648Z,98865.00
2018-08-24T04:17:14.396Z,98860.00
2018-08-24T04:19:27.464Z,98866.00
2018-08-24T04:21:31.892Z,98867.00
2018-08-24T04:23:36.438Z,98863.00
2018-08-24T04:25:41.018Z,98857.00
2018-08-24T04:27:45.446Z,98852.00
2018-08-24T04:29:50.202Z,98861.00
2018-08-24T04:31:54.714Z,98860.00
2018-08-24T04:33:59.179Z,98866.00
2018-08-24T04:36:03.834Z,98858.00
2018-08-24T04:38:08.470Z,98867.00
2018-08-24T04:40:13.035Z,98871.00
2018-08-24T04:42:17.548Z,98870.00
2018-08-24T04:44:22.032Z,98882.00
2018-08-24T04:46:26.545Z,98872.00
2018-08-24T04:48:31.026Z,98872.00
2018-08-24T04:50:35.522Z,98873.00
2018-08-24T04:52:40.034Z,98875.00
2018-08-24T04:54:44.542Z,98882.00
2018-08-24T04:56:49.020Z,98881.00
2018-08-24T04:58:53.778Z,98882.00
2018-08-24T05:00:58.353Z,98889.00
2018-08-24T05:03:02.829Z,98886.00
2018-08-24T05:05:09.298Z,98886.00
2018-08-24T05:07:14.942Z,98897.00
2018-08-24T05:09:19.377Z,98896.00
2018-08-24T05:11:23.851Z,98907.00
2018-08-24T05:13:28.547Z,98898.00
2018-08-24T05:15:33.531Z,98907.00
2018-08-24T05:17:38.122Z,98906.00
2018-08-24T05:19:42.599Z,98909.00
2018-08-24T05:21:47.110Z,98910.00
2018-08-24T05:23:52.541Z,98911.00
2018-08-24T05:25:58.726Z,98915.00
2018-08-24T05:28:04.336Z,98923.00
2018-08-24T05:30:10.302Z,98928.00
2018-08-24T05:32:15.426Z,98924.00
2018-08-24T05:34:19.902Z,98931.00
2018-08-24T05:36:24.890Z,98930.00
2018-08-24T05:38:29.754Z,98926.00
2018-08-24T05:40:34.231Z,98925.00
2018-08-24T05:42:38.682Z,98915.00
2018-08-24T05:44:43.208Z,98919.00
2018-08-24T05:46:47.730Z,98933.00
2018-08-24T05:48:52.334Z,98927.00
2018-08-24T05:50:56.698Z,98921.00
2018-08-24T05:53:01.224Z,98924.00
2018-08-24T05:55:06.334Z,98935.00
2018-08-24T05:57:10.814Z,98929.00
2018-08-24T05:59:15.278Z,98930.00
2018-08-24T06:01:19.802Z,98936.00
2018-08-24T06:03:24.318Z,98928.00
2018-08-24T06:05:29.269Z,98930.00
2018-08-24T06:07:33.705Z,98932.00
2018-08-24T06:09:38.450Z,98940.00
2018-08-24T06:11:43.495Z,98931.00
2018-08-24T06:13:47.958Z,98930.00
2018-08-24T06:15:52.499Z,98939.00
2018-08-24T06:17:58.506Z,98941.00
2018-08-24T06:20:03.161Z,98934.00
2018-08-24T06:22:07.726Z,98929.00
2018-08-24T06:24:12.773Z,98928.00
2018-08-24T06:26:18.446Z,98931.00
2018-08-24T06:28:22.893Z,98940.00
2018-08-24T06:30:28.136Z,98928.00
2018-08-24T06:32:32.775Z,98929.00
2018-08-24T06:34:38.358Z,98933.00
2018-08-24T06:36:42.815Z,98930.00
2018-08-24T06:38:47.262Z,98949.00
2018-08-24T06:40:51.883Z,98939.00
2018-08-24T06:42:57.316Z,98932.00
2018-08-24T06:45:01.974Z,98937.00
2018-08-24T06:47:07.612Z,98943.00
2018-08-24T06:49:13.445Z,98943.00
2018-08-24T06:51:20.508Z,98939.00
2018-08-24T06:53:26.189Z,98943.00
2018-08-24T06:55:32.622Z,98941.00
2018-08-24T06:57:37.146Z,98949.00
2018-08-24T06:59:42.561Z,98950.00
2018-08-24T07:01:47.690Z,98946.00
2018-08-24T07:03:52.168Z,98953.00
2018-08-24T07:05:56.706Z,98948.00
2018-08-24T07:08:01.177Z,98954.00
2018-08-24T07:10:05.994Z,98938.00
2018-08-24T07:12:13.662Z,98948.00
2018-08-24T07:14:18.717Z,98948.00
2018-08-24T07:16:23.270Z,98955.00
2018-08-24T07:18:27.818Z,98952.00
2018-08-24T07:20:32.747Z,98962.00
2018-08-24T07:22:37.326Z,98958.00
2018-08-24T07:24:41.920Z,98960.00
2018-08-24T07:26:46.474Z,98961.00
2018-08-24T07:28:50.938Z,98954.00
2018-08-24T07:30:55.492Z,98955.00
2018-08-24T07:32:59.934Z,98962.00
2018-08-24T07:35:04.498Z,98959.00
2018-08-24T07:37:09.223Z,98970.00
2018-08-24T07:39:14.826Z,98960.00
2018-08-24T07:41:19.382Z,98961.00
2018-08-24T07:43:24.536Z,98964.00
2018-08-24T07:45:30.041Z,98963.00
2018-08-24T07:47:34.741Z,98963.00
2018-08-24T07:49:39.269Z,98963.00
2018-08-24T07:51:43.824Z,98964.00
2018-08-24T07:53:48.308Z,98968.00
2018-08-24T07:55:52.899Z,98968.00
2018-08-24T07:57:57.486Z,98976.00
2018-08-24T08:00:01.966Z,98971.00
2018-08-24T08:02:06.578Z,98977.00
2018-08-24T08:04:11.092Z,98980.00
2018-08-24T08:06:15.622Z,98992.00
2018-08-24T08:08:20.107Z,98981.00
2018-08-24T08:10:24.646Z,98989.00
2018-08-24T08:12:29.195Z,98986.00
2018-08-24T08:14:33.713Z,98991.00
2018-08-24T08:16:39.069Z,98996.00
2018-08-24T08:18:43.581Z,98985.00
2018-08-24T08:20:48.027Z,98989.00
2018-08-24T08:22:52.527Z,98989.00
2018-08-24T08:24:57.003Z,98994.00
2018-08-24T08:27:01.714Z,98989.00
2018-08-24T08:29:06.253Z,98989.00
2018-08-24T08:31:10.811Z,98993.00
2018-08-24T08:33:15.279Z,98992.00
2018-08-24T08:35:19.734Z,98996.00
2018-08-24T08:37:24.722Z,98997.00
2018-08-24T08:39:29.204Z,99000.00
2018-08-24T08:41:33.688Z,99000.00
2018-08-24T08:43:39.387Z,98994.00
2018-08-24T08:45:43.882Z,99009.00
2018-08-24T08:47:48.422Z,99006.00
2018-08-24T08:49:52.906Z,99013.00
2018-08-24T08:51:57.428Z,99020.00
2018-08-24T08:54:01.909Z,99015.00
2018-08-24T08:56:06.990Z,99023.00
2018-08-24T08:58:11.494Z,99015.00
2018-08-24T09:00:15.943Z,99014.00
2018-08-24T09:02:20.607Z,99027.00
2018-08-24T09:04:25.210Z,99037.00
2018-08-24T09:06:29.779Z,99037.00
2018-08-24T09:08:34.219Z,99043.00
2018-08-24T09:10:39.561Z,99051.00
2018-08-24T09:12:44.040Z,99060.00
2018-08-24T09:14:48.546Z,99079.00
2018-08-24T09:16:53.040Z,99078.00
2018-08-24T09:19:02.830Z,99085.00
2018-08-24T09:21:12.666Z,99083.00
2018-08-24T09:23:22.356Z,99084.00
2018-08-24T09:25:32.165Z,99085.00
2018-08-24T09:28:41.974Z,99088.00
2018-08-24T09:30:53.830Z,99093.00
2018-08-24T09:32:58.354Z,99092.00
2018-08-24T09:35:03.343Z,99092.00
2018-08-24T09:37:13.191Z,99100.00
2018-08-24T09:39:28.223Z,99106.00
2018-08-24T09:41:35.308Z,99106.00
2018-08-24T09:43:46.482Z,99103.00
2018-08-24T09:45:51.050Z,99106.00
2018-08-24T09:48:35.134Z,99104.00
2018-08-24T09:50:47.091Z,99098.00
2018-08-24T09:52:56.773Z,99115.00
2018-08-24T09:55:01.254Z,99094.00
2018-08-24T09:57:06.016Z,99095.00
2018-08-24T09:59:10.492Z,99091.00
2018-08-24T10:01:20.182Z,99089.00
2018-08-24T10:03:29.763Z,99084.00
2018-08-24T10:05:39.408Z,99075.00
2018-08-24T10:07:45.379Z,99089.00
2018-08-24T10:09:49.885Z,99085.00
2018-08-24T10:11:54.462Z,99083.00
2018-08-24T10:14:00.154Z,99075.00
2018-08-24T10:16:04.590Z,99084.00
2018-08-24T10:18:09.159Z,99082.00
2018-08-24T10:20:13.726Z,99083.00
2018-08-24T10:22:18.209Z,99085.00
2018-08-24T10:24:22.696Z,99081.00
2018-08-24T10:26:27.215Z,99079.00
2018-08-24T10:28:32.007Z,99086.00
2018-08-24T10:30:36.592Z,99080.00
2018-08-24T10:32:41.023Z,99095.00
2018-08-24T10:34:45.495Z,99098.00
2018-08-24T10:36:49.989Z,99095.00
2018-08-24T10:38:54.531Z,99089.00
2018-08-24T10:41:00.195Z,99080.00
2018-08-24T10:43:05.036Z,99084.00
2018-08-24T10:45:09.551Z,99085.00
2018-08-24T10:47:14.033Z,99080.00
2018-08-24T10:49:18.545Z,99079.00
2018-08-24T10:51:22.983Z,99086.00
2018-08-24T10:53:27.521Z,99086.00
2018-08-24T10:55:32.027Z,99073.00
2018-08-24T10:57:36.574Z,99073.00
2018-08-24T10:59:41.329Z,99077.00
2018-08-24T11:01:45.775Z,99075.00
2018-08-24T11:03:50.304Z,99077.00
2018-08-24T11:05:54.823Z,99077.00
2018-08-24T11:07:59.391Z,99079.00
2018-08-24T11:10:04.010Z,99087.00
2018-08-24T11:12:08.564Z,99101.00
2018-08-24T11:14:13.064Z,99107.00
2018-08-24T11:16:17.502Z,99099.00
2018-08-24T11:18:21.987Z,99097.00
2018-08-24T11:20:26.456Z,99101.00
2018-08-24T11:22:31.790Z,99105.00
2018-08-24T11:24:36.313Z,99105.00
2018-08-24T11:26:41.462Z,99097.00
2018-08-24T11:28:45.973Z,99102.00
2018-08-24T11:30:50.447Z,99107.00
2018-08-24T11:32:54.923Z,99104.00
2018-08-24T11:34:59.398Z,99108.00
2018-08-24T11:37:03.961Z,99100.00
2018-08-24T11:39:09.315Z,99109.00
2018-08-24T11:41:13.791Z,99105.00
2018-08-24T11:43:18.246Z,99100.00
2018-08-24T11:45:22.864Z,99104.00
2018-08-24T11:47:27.333Z,99100.00
2018-08-24T11:49:31.896Z,99098.00
2018-08-24T11:51:36.659Z,99100.00
2018-08-24T11:53:41.582Z,99102.00
2018-08-24T11:55:46.074Z,99098.00
2018-08-24T11:57:50.542Z,99090.00
2018-08-24T11:59:55.503Z,99104.00
2018-08-24T12:01:59.900Z,99106.00
2018-08-24T12:04:05.328Z,99106.00
2018-08-24T12:06:13.602Z,99108.00
2018-08-24T12:08:18.188Z,99109.00
2018-08-24T12:10:22.943Z,99106.00
2018-08-24T12:12:27.603Z,99113.00
2018-08-24T12:14:33.042Z,99106.00
2018-08-24T12:16:37.651Z,99100.00
2018-08-24T12:18:42.231Z,99104.00
2018-08-24T12:20:46.786Z,99101.00
2018-08-24T12:22:51.292Z,99104.00
2018-08-24T12:24:56.046Z,99116.00
2018-08-24T12:27:00.711Z,99117.00
2018-08-24T12:29:05.871Z,99119.00
2018-08-24T12:31:10.406Z,99120.00
2018-08-24T12:33:14.923Z,99116.00
2018-08-24T12:35:19.402Z,99114.00
2018-08-24T12:37:23.914Z,99112.00
2018-08-24T12:39:28.371Z,99107.00
2018-08-24T12:41:32.882Z,99108.00
2018-08-24T12:43:37.343Z,99113.00
2018-08-24T12:45:42.146Z,99103.00
2018-08-24T12:47:46.627Z,99112.00
2018-08-24T12:49:51.107Z,99108.00
2018-08-24T12:51:55.662Z,99108.00
2018-08-24T12:54:00.502Z,99108.00
2018-08-24T12:56:09.970Z,99094.00
2018-08-24T12:58:14.525Z,99102.00
2018-08-24T13:00:18.991Z,99099.00
2018-08-24T13:02:23.443Z,99097.00
2018-08-24T13:04:28.047Z,99100.00
2018-08-24T13:06:32.658Z,99100.00
2018-08-24T13:08:37.229Z,99099.00
2018-08-24T13:10:42.336Z,99095.00
2018-08-24T13:12:47.063Z,99094.00
2018-08-24T13:14:52.233Z,99091.00
2018-08-24T13:16:57.208Z,99093.00
2018-08-24T13:19:03.888Z,99091.00
2018-08-24T13:21:10.461Z,99079.00
2018-08-24T13:23:18.101Z,99091.00
2018-08-24T13:25:22.718Z,99088.00
2018-08-24T13:27:28.943Z,99082.00
2018-08-24T13:29:33.486Z,99073.00
2018-08-24T13:31:37.958Z,99079.00
2018-08-24T13:33:42.500Z,99076.00
2018-08-24T13:35:46.997Z,99073.00
2018-08-24T13:37:51.941Z,99075.00
2018-08-24T13:39:56.531Z,99077.00
2018-08-24T13:42:02.690Z,99076.00
2018-08-24T13:44:07.883Z,99065.00
2018-08-24T13:46:16.490Z,99068.00
2018-08-24T13:48:21.166Z,99070.00
2018-08-24T13:50:25.710Z,99070.00
2018-08-24T13:52:30.474Z,99074.00
2018-08-24T13:54:40.290Z,99067.00
2018-08-24T13:56:52.256Z,99067.00
2018-08-24T13:58:59.308Z,99062.00
2018-08-24T14:01:07.884Z,99060.00
2018-08-24T14:03:12.809Z,99072.00
2018-08-24T14:05:19.919Z,99070.00
2018-08-24T14:07:26.706Z,99068.00
2018-08-24T14:09:34.205Z,99074.00
2018-08-24T14:11:40.801Z,99068.00
2018-08-24T14:13:49.374Z,99069.00
2018-08-24T14:15:53.914Z,99056.00
2018-08-24T14:17:58.346Z,99056.00
2018-08-24T14:20:02.994Z,99062.00
2018-08-24T14:22:07.539Z,99063.00
2018-08-24T14:24:12.018Z,99048.00
2018-08-24T14:26:16.523Z,99048.00
2018-08-24T14:28:20.979Z,99029.00
2018-08-24T14:30:25.405Z,99031.00
2018-08-24T14:32:30.025Z,99038.00
2018-08-24T14:34:34.626Z,99042.00
2018-08-24T14:36:39.353Z,99043.00
2018-08-24T14:38:43.950Z,99041.00
2018-08-24T14:40:48.456Z,99048.00
2018-08-24T14:42:53.206Z,99047.00
2018-08-24T14:44:57.629Z,99043.00
2018-08-24T14:47:03.319Z,99040.00
2018-08-24T14:49:08.088Z,99048.00
2018-08-24T14:51:12.770Z,99043.00
2018-08-24T14:53:18.507Z,99031.00
2018-08-24T14:55:24.962Z,99038.00
2018-08-24T14:57:31.638Z,99042.00
2018-08-24T14:59:38.108Z,99031.00
2018-08-24T15:01:43.463Z,99039.00
2018-08-24T15:03:47.952Z,99039.00
2018-08-24T15:05:53.700Z,99037.00
2018-08-24T15:08:02.133Z,99029.00
2018-08-24T15:10:06.971Z,99033.00
2018-08-24T15:12:11.779Z,99031.00
2018-08-24T15:14:16.292Z,99030.00
2018-08-24T15:16:20.919Z,99035.00
2018-08-24T15:18:25.747Z,99028.00
2018-08-24T15:20:31.102Z,99029.00
2018-08-24T15:22:35.628Z,99031.00
2018-08-24T15:24:40.358Z,99030.00
2018-08-24T15:26:45.097Z,99025.00
2018-08-24T15:28:49.635Z,99025.00
2018-08-24T15:30:54.170Z,99022.00
2018-08-24T15:32:59.296Z,99019.00
2018-08-24T15:35:04.142Z,99030.00
2018-08-24T15:37:08.658Z,99024.00
2018-08-24T15:39:14.283Z,99028.00
2018-08-24T15:41:18.731Z,99027.00
2018-08-24T15:43:24.224Z,99030.00
2018-08-24T15:45:28.794Z,99028.00
2018-08-24T15:47:33.485Z,99028.00
2018-08-24T15:49:38.224Z,99026.00
2018-08-24T15:51:42.715Z,99024.00
2018-08-24T15:53:47.226Z,99034.00
2018-08-24T15:55:51.970Z,99038.00
2018-08-24T15:57:56.429Z,99031.00
2018-08-24T16:00:00.886Z,99034.00
2018-08-24T16:02:05.353Z,99033.00
2018-08-24T16:04:11.779Z,99030.00
2018-08-24T16:06:16.231Z,99027.00
2018-08-24T16:08:20.690Z,99030.00
2018-08-24T16:10:25.395Z,99039.00
2018-08-24T16:12:29.854Z,99042.00
2018-08-24T16:14:34.383Z,99042.00
2018-08-24T16:16:39.167Z,99030.00
2018-08-24T16:18:43.647Z,99038.00
2018-08-24T16:20:48.070Z,99027.00
2018-08-24T16:22:53.158Z,99038.00
2018-08-24T16:24:57.624Z,99023.00
2018-08-24T16:27:02.221Z,99035.00
2018-08-24T16:29:06.889Z,99029.00
2018-08-24T16:31:11.896Z,99033.00
2018-08-24T16:33:16.675Z,99025.00
2018-08-24T16:35:21.141Z,99047.00
2018-08-24T16:37:26.545Z,99051.00
2018-08-24T16:39:31.004Z,99058.00
2018-08-24T16:41:35.539Z,99054.00
2018-08-24T16:43:40.038Z,99059.00
2018-08-24T16:45:44.745Z,99060.00
2018-08-24T16:47:50.378Z,99057.00
2018-08-24T16:49:55.102Z,99048.00
2018-08-24T16:52:00.174Z,99056.00
2018-08-24T16:54:04.754Z,99058.00
2018-08-24T16:56:09.598Z,99064.00
2018-08-24T16:58:14.310Z,99063.00
2018-08-24T17:00:18.746Z,99063.00
2018-08-24T17:02:23.385Z,99066.00
2018-08-24T17:04:27.898Z,99068.00
2018-08-24T17:06:32.413Z,99058.00
2018-08-24T17:08:36.907Z,99067.00
2018-08-24T17:10:41.427Z,99058.00
2018-08-24T17:12:46.620Z,99044.00
2018-08-24T17:14:51.159Z,99058.00
2018-08-24T17:16:55.631Z,99062.00
2018-08-24T17:19:00.239Z,99049.00
2018-08-24T17:21:04.854Z,99043.00
2018-08-24T17:23:09.390Z,99042.00
2018-08-24T17:25:13.947Z,99053.00
2018-08-24T17:27:18.493Z,99049.00
2018-08-24T17:29:23.210Z,99039.00
2018-08-24T17:31:27.712Z,99043.00
2018-08-24T17:33:32.361Z,99044.00
2018-08-24T17:35:37.193Z,99051.00
2018-08-24T17:37:41.716Z,99041.00
2018-08-24T17:39:47.179Z,99038.00
2018-08-24T17:41:52.811Z,99039.00
2018-08-24T17:43:57.215Z,99035.00
2018-08-24T17:46:01.714Z,99042.00
2018-08-24T17:48:07.297Z,99044.00
2018-08-24T17:50:11.742Z,99051.00
2018-08-24T17:52:16.709Z,99053.00
2018-08-24T17:54:21.188Z,99053.00
2018-08-24T17:56:25.632Z,99044.00
2018-08-24T17:58:31.086Z,99047.00
2018-08-24T18:00:36.247Z,99051.00
2018-08-24T18:02:40.766Z,99050.00
2018-08-24T18:04:45.523Z,99047.00
2018-08-24T18:06:50.386Z,99053.00
2018-08-24T18:08:55.016Z,99052.00
2018-08-24T18:10:59.606Z,99043.00
2018-08-24T18:13:05.911Z,99044.00
2018-08-24T18:15:11.576Z,99044.00
2018-08-24T18:17:16.314Z,99042.00
2018-08-24T18:19:20.754Z,99049.00
2018-08-24T18:21:25.254Z,99055.00
2018-08-24T18:23:29.799Z,99051.00
2018-08-24T18:25:34.363Z,99052.00
2018-08-24T18:27:38.863Z,99050.00
2018-08-24T18:29:43.348Z,99050.00
2018-08-24T18:31:47.866Z,99054.00
2018-08-24T18:33:52.369Z,99051.00
2018-08-24T18:38:32.706Z,99053.00
2018-08-24T18:40:38.819Z,99054.00
2018-08-24T18:42:46.953Z,99059.00
2018-08-24T18:44:52.665Z,99058.00
2018-08-24T18:46:57.087Z,99066.00
2018-08-24T18:49:01.603Z,99056.00
2018-08-24T18:51:06.336Z,99055.00
2018-08-24T18:53:11.003Z,99059.00
2018-08-24T18:55:15.447Z,99065.00
2018-08-24T18:57:19.943Z,99072.00
2018-08-24T18:59:25.001Z,99064.00
2018-08-24T19:01:29.446Z,99064.00
2018-08-24T19:03:34.398Z,99070.00
2018-08-24T19:05:38.835Z,99061.00
2018-08-24T19:07:43.999Z,99072.00
2018-08-24T19:09:48.436Z,99070.00
2018-08-24T19:11:57.960Z,99071.00
2018-08-24T19:14:02.544Z,99073.00
2018-08-24T19:16:07.018Z,99080.00
2018-08-24T19:18:18.054Z,99079.00
2018-08-24T19:20:27.889Z,99071.00
2018-08-24T19:22:32.419Z,99074.00
2018-08-24T19:24:38.713Z,99074.00
2018-08-24T19:26:43.519Z,99072.00
2018-08-24T19:28:53.599Z,99080.00
2018-08-24T19:30:58.676Z,99083.00
2018-08-24T19:33:03.680Z,99085.00
2018-08-24T19:35:10.424Z,99094.00
2018-08-24T19:37:14.839Z,99080.00
2018-08-24T19:39:19.294Z,99091.00
2018-08-24T19:41:28.908Z,99084.00
2018-08-24T19:43:33.712Z,99087.00
2018-08-24T19:45:38.137Z,99087.00
2018-08-24T19:47:48.358Z,99080.00
2018-08-24T19:49:53.492Z,99080.00
2018-08-24T19:51:58.056Z,99086.00
2018-08-24T19:54:03.462Z,99079.00
2018-08-24T19:56:09.034Z,99076.00
2018-08-24T19:58:18.660Z,99082.00
2018-08-24T20:00:23.473Z,99084.00
2018-08-24T20:02:29.406Z,99074.00
2018-08-24T20:04:33.821Z,99067.00
2018-08-24T20:06:43.368Z,99070.00
2018-08-24T20:08:53.174Z,99073.00
2018-08-24T20:10:57.735Z,99080.00
2018-08-24T20:13:04.872Z,99070.00
2018-08-24T20:15:15.231Z,99069.00
2018-08-24T20:17:24.870Z,99068.00
2018-08-24T20:19:29.603Z,99073.00
2018-08-24T20:21:34.066Z,99068.00
2018-08-24T20:23:38.507Z,99068.00
2018-08-24T20:25:44.475Z,99065.00
2018-08-24T20:27:49.848Z,99060.00
2018-08-24T20:29:54.307Z,99056.00
2018-08-24T20:31:58.719Z,99055.00
2018-08-24T20:34:03.270Z,99059.00
2018-08-24T20:36:08.248Z,99048.00
2018-08-24T20:38:15.447Z,99041.00
2018-08-24T20:40:21.029Z,99040.00
2018-08-24T20:42:25.905Z,99039.00
2018-08-24T20:44:30.360Z,99036.00
2018-08-24T20:46:34.933Z,99038.00
2018-08-24T20:48:39.410Z,99037.00
2018-08-24T20:50:44.028Z,99036.00
2018-08-24T20:52:49.592Z,99040.00
2018-08-24T20:54:54.426Z,99040.00
2018-08-24T20:56:58.838Z,99036.00
2018-08-24T20:59:03.907Z,99035.00
2018-08-24T21:01:10.916Z,99038.00
2018-08-24T21:03:15.599Z,99038.00
2018-08-24T21:05:20.164Z,99030.00
2018-08-24T21:07:24.582Z,99033.00
2018-08-24T21:09:30.134Z,99021.00
2018-08-24T21:11:34.594Z,99024.00
2018-08-24T21:13:39.019Z,99028.00
2018-08-24T21:15:43.519Z,99026.00
2018-08-24T21:17:48.524Z,99038.00
2018-08-24T21:19:53.187Z,99036.00
2018-08-24T21:21:57.730Z,99029.00
2018-08-24T21:24:02.227Z,99032.00
2018-08-24T21:26:06.703Z,99026.00
2018-08-24T21:28:11.169Z,99016.00
2018-08-24T21:30:15.707Z,99024.00
2018-08-24T21:32:20.084Z,99030.00
2018-08-24T21:34:24.574Z,99021.00
2018-08-24T21:36:29.010Z,99017.00
2018-08-24T21:38:33.835Z,99017.00
2018-08-24T21:40:38.351Z,99026.00
2018-08-24T21:42:43.627Z,99018.00
2018-08-24T21:44:48.380Z,99007.00
2018-08-24T21:46:55.593Z,99009.00
2018-08-24T21:49:00.120Z,99006.00
2018-08-24T21:51:04.570Z,99005.00
2018-08-24T21:53:09.054Z,98995.00
2018-08-24T21:55:13.498Z,98994.00
2018-08-24T21:57:18.040Z,99005.00
2018-08-24T21:59:22.470Z,98993.00
2018-08-24T22:01:28.530Z,98996.00
2018-08-24T22:03:37.211Z,98993.00
2018-08-24T22:05:44.731Z,98992.00
2018-08-24T22:07:49.392Z,98985.00
2018-08-24T22:09:54.102Z,98995.00
2018-08-24T22:11:58.529Z,98990.00
2018-08-24T22:14:03.005Z,98997.00
2018-08-24T22:16:07.477Z,98989.00
2018-08-24T22:18:11.959Z,98987.00
2018-08-24T22:20:16.571Z,98995.00
2018-08-24T22:22:21.398Z,98995.00
2018-08-24T22:24:25.789Z,98996.00
2018-08-24T22:26:31.399Z,98989.00
2018-08-24T22:28:35.978Z,99001.00
2018-08-24T22:30:40.395Z,98999.00
2018-08-24T22:32:47.961Z,98991.00
2018-08-24T22:34:52.527Z,99006.00
2018-08-24T22:36:56.931Z,99001.00
2018-08-24T22:39:01.364Z,98999.00
2018-08-24T22:41:06.075Z,98996.00
2018-08-24T22:43:16.901Z,98995.00
2018-08-24T22:45:23.873Z,98994.00
2018-08-24T22:47:28.290Z,98993.00
2018-08-24T22:49:32.718Z,98983.00
2018-08-24T22:51:37.133Z,99000.00
2018-08-24T22:53:41.626Z,98992.00
2018-08-24T22:55:46.029Z,98990.00
2018-08-24T22:57:50.554Z,98991.00
2018-08-24T22:59:55.047Z,98990.00
2018-08-24T23:01:59.474Z,98984.00
2018-08-24T23:04:04.208Z,98984.00
2018-08-24T23:06:08.662Z,98992.00
2018-08-24T23:08:13.063Z,98992.00
2018-08-24T23:10:17.462Z,98982.00
2018-08-24T23:12:21.895Z,98968.00
2018-08-24T23:14:26.338Z,98962.00
2018-08-24T23:16:31.924Z,98967.00
2018-08-24T23:18:36.410Z,98963.00
2018-08-24T23:20:40.822Z,98962.00
2018-08-24T23:22:45.258Z,98951.00
2018-08-24T23:24:49.655Z,98957.00
2018-08-24T23:26:54.090Z,98961.00
2018-08-24T23:28:58.529Z,98958.00
2018-08-24T23:31:02.966Z,98949.00
2018-08-24T23:33:07.499Z,98961.00
2018-08-24T23:35:12.525Z,98952.00
2018-08-24T23:37:16.954Z,98949.00
2018-08-24T23:39:21.454Z,98950.00
2018-08-24T23:41:25.872Z,98950.00
2018-08-24T23:43:30.280Z,98942.00
2018-08-24T23:45:34.756Z,98943.00
2018-08-24T23:47:39.183Z,98941.00
2018-08-24T23:49:43.682Z,98940.00
2018-08-24T23:51:48.192Z,98937.00
2018-08-24T23:53:52.918Z,98938.00
2018-08-24T23:55:57.321Z,98929.00
2018-08-24T23:58:01.739Z,98928.00
